Time;durP1;ratioP1;P1;durP2;ratioP2;P2;SDS_P1;SDS_P2;PMS_P1;PMS_P2;Temp;Humidity;BMP_temperature;BMP_pressure;BME280_temperature;BME280_humidity;BME280_pressure;Samples;Min_cycle;Max_cycle;Signal;HPM_P1;HPM_P2
2022/12/05 00:01:12;;;;;;;;;;;12.00;92.40;;;;;;5016451;28;19929;-63
2022/12/05 00:03:38;;;;;;;;;;;;;;;;;;5034388;28;19929;-63
2022/12/05 00:06:03;;;;;;;;;;;12.50;92.50;;;;;;5029620;28;19926;-63
2022/12/05 00:08:29;;;;;;;;;;;12.40;92.50;;;;;;5012913;28;19933;-63
2022/12/05 00:10:55;;;;;;;;;;;12.20;92.40;;;;;;5013313;28;19926;-63
2022/12/05 00:13:20;;;;;;;;;;;12.20;92.50;;;;;;5012882;28;20314;-63
2022/12/05 00:15:46;;;;;;;;;;;12.40;92.50;;;;;;5029763;28;19983;-63
2022/12/05 00:18:11;;;;;;;;;;;12.30;92.40;;;;;;5034466;28;20012;-63
2022/12/05 00:20:43;;;;;;;;;;;12.40;92.50;;;;;;5034387;28;20016;-63
2022/12/05 00:23:08;;;;;;;;;;;12.30;92.40;;;;;;5032758;28;19944;-63
2022/12/05 00:25:34;;;;;;;;;;;12.20;92.40;;;;;;5065332;28;20280;-63
2022/12/05 00:28:00;;;;;;;;;;;12.40;92.50;;;;;;5032498;28;20383;-64
2022/12/05 00:30:26;;;;;;;;;;;12.40;92.50;;;;;;5034036;28;19978;-63
2022/12/05 00:32:51;;;;;;;;;;;12.50;92.50;;;;;;5033998;28;19925;-64
2022/12/05 00:35:17;;;;;;;;;;;12.50;92.30;;;;;;5033669;28;20309;-64
2022/12/05 00:37:43;;;;;;;;;;;;;;;;;;5064050;28;19925;-63
2022/12/05 00:40:09;;;;;;;;;;;12.40;92.50;;;;;;5028533;28;19929;-63
2022/12/05 00:42:35;;;;;;;;;;;12.60;92.50;;;;;;4996201;28;19988;-63
2022/12/05 00:45:00;;;;;;;;;;;12.20;92.40;;;;;;5029315;28;19979;-63
2022/12/05 00:47:26;;;;;;;;;;;12.20;92.40;;;;;;5019597;28;19929;-63
2022/12/05 00:49:51;;;;;;;;;;;12.30;92.40;;;;;;5033833;28;20385;-63
2022/12/05 00:52:17;;;;;;;;;;;;;;;;;;5033846;28;20426;-63
2022/12/05 00:54:43;;;;;;;;;;;12.60;92.20;;;;;;5033466;28;20024;-63
2022/12/05 00:57:09;;;;;;;;;;;12.30;92.50;;;;;;5060035;28;20000;-64
2022/12/05 00:59:34;;;;;;;;;;;12.40;92.50;;;;;;5027330;28;20268;-63
2022/12/05 01:02:00;;;;;;;;;;;12.60;92.60;;;;;;5064299;28;20349;-63
2022/12/05 01:04:25;;;;;;;;;;;12.30;92.50;;;;;;5065526;28;20013;-63
2022/12/05 01:06:55;;;;;;;;;;;12.40;92.60;;;;;;5031997;28;19971;-63
2022/12/05 01:09:21;;;;;;;;;;;12.60;92.50;;;;;;5065779;28;20306;-64
2022/12/05 01:11:46;;;;;;;;;;;12.60;92.60;;;;;;5033302;28;19925;-63
2022/12/05 01:14:12;;;;;;;;;;;12.20;92.60;;;;;;5032204;28;19921;-63
2022/12/05 01:16:38;;;;;;;;;;;12.20;92.60;;;;;;5030759;28;20406;-63
2022/12/05 01:19:05;;;;;;;;;;;12.40;92.60;;;;;;5065282;28;19944;-64
2022/12/05 01:21:31;;;;;;;;;;;12.70;92.70;;;;;;5033251;28;20390;-63
2022/12/05 01:23:56;;;;;;;;;;;12.60;92.70;;;;;;5032055;28;19925;-63
2022/12/05 01:26:22;;;;;;;;;;;12.50;92.60;;;;;;5032003;28;20359;-64
2022/12/05 01:28:48;;;;;;;;;;;12.40;92.60;;;;;;5064770;28;19925;-64
2022/12/05 01:31:21;;;;;;;;;;;12.50;92.60;;;;;;5028295;28;19972;-63
2022/12/05 01:33:47;;;;;;;;;;;12.50;92.60;;;;;;4995950;28;20020;-63
2022/12/05 01:36:13;;;;;;;;;;;12.30;92.60;;;;;;4996589;28;20039;-63
2022/12/05 01:38:39;;;;;;;;;;;12.60;92.60;;;;;;5036153;28;19988;-63
2022/12/05 01:41:05;;;;;;;;;;;12.40;92.60;;;;;;5019423;28;19925;-63
2022/12/05 01:43:31;;;;;;;;;;;12.50;92.60;;;;;;5068931;28;20303;-65
2022/12/05 01:45:56;;;;;;;;;;;12.60;92.70;;;;;;5068685;28;19925;-63
2022/12/05 01:48:31;;;;;;;;;;;12.60;92.70;;;;;;5017302;28;19925;-63
2022/12/05 01:50:57;;;;;;;;;;;12.70;92.70;;;;;;5019004;28;19951;-63
2022/12/05 01:53:23;;;;;;;;;;;12.40;92.70;;;;;;5051904;28;20012;-63
2022/12/05 01:55:49;;;;;;;;;;;12.50;92.70;;;;;;5036649;28;19925;-63
2022/12/05 01:58:14;;;;;;;;;;;12.30;92.70;;;;;;5018343;28;19925;-64
2022/12/05 02:00:40;;;;;;;;;;;12.50;92.80;;;;;;5036339;28;19932;-63
2022/12/05 02:03:10;;;;;;;;;;;12.30;92.80;;;;;;5036253;28;19925;-63
2022/12/05 02:05:36;;;;;;;;;;;12.40;92.70;;;;;;5034309;28;19925;-63
2022/12/05 02:08:02;;;;;;;;;;;12.40;92.70;;;;;;5033954;28;19928;-63
2022/12/05 02:10:29;;;;;;;;;;;12.50;92.80;;;;;;5051960;28;20357;-64
2022/12/05 02:12:54;;;;;;;;;;;12.50;92.80;;;;;;5068160;28;19926;-62
2022/12/05 02:15:49;;;;;;;;;;;12.60;92.80;;;;;;5035672;28;19972;-63
2022/12/05 02:18:21;;;;;;;;;;;12.60;92.80;;;;;;5043003;28;19925;-63
2022/12/05 02:20:46;;;;;;;;;;;12.60;92.80;;;;;;5035668;28;19925;-63
2022/12/05 02:23:30;;;;;;;;;;;12.20;92.80;;;;;;5024128;28;19980;-63
2022/12/05 02:26:15;;;;;;;;;;;12.50;92.90;;;;;;5030450;28;19932;-63
2022/12/05 02:28:46;;;;;;;;;;;12.60;92.80;;;;;;5066280;28;19932;-63
2022/12/05 02:31:12;;;;;;;;;;;12.50;92.90;;;;;;5068159;28;20272;-63
2022/12/05 02:33:44;;;;;;;;;;;12.50;92.90;;;;;;5067778;28;19933;-63
2022/12/05 02:36:18;;;;;;;;;;;12.60;92.90;;;;;;5067918;28;19925;-63
2022/12/05 02:38:45;;;;;;;;;;;;;;;;;;5065916;28;19925;-64
2022/12/05 02:41:29;;;;;;;;;;;12.50;92.80;;;;;;5033984;28;19925;-63
2022/12/05 02:43:58;;;;;;;;;;;12.50;92.90;;;;;;5035044;28;20019;-63
2022/12/05 02:46:24;;;;;;;;;;;12.30;92.80;;;;;;5032912;28;19932;-63
2022/12/05 02:48:50;;;;;;;;;;;12.40;92.90;;;;;;5016692;28;19925;-64
2022/12/05 02:51:16;;;;;;;;;;;;;;;;;;5035180;28;20333;-64
2022/12/05 02:53:42;;;;;;;;;;;12.60;93.00;;;;;;5035051;28;19926;-63
2022/12/05 02:56:08;;;;;;;;;;;12.40;92.90;;;;;;5033677;28;19932;-63
2022/12/05 02:58:35;;;;;;;;;;;12.30;92.90;;;;;;5033009;28;20345;-67
2022/12/05 03:01:01;;;;;;;;;;;12.30;92.90;;;;;;5017546;28;19926;-67
2022/12/05 03:03:26;;;;;;;;;;;12.60;93.00;;;;;;5050559;28;19978;-63
2022/12/05 03:06:00;;;;;;;;;;;12.50;93.00;;;;;;5016733;28;19927;-64
2022/12/05 03:08:27;;;;;;;;;;;12.20;92.90;;;;;;5033103;28;20382;-63
2022/12/05 03:10:53;;;;;;;;;;;12.30;92.90;;;;;;5033854;28;19925;-64
2022/12/05 03:13:20;;;;;;;;;;;12.50;93.00;;;;;;5049255;28;19926;-64
2022/12/05 03:15:47;;;;;;;;;;;12.50;93.00;;;;;;5033156;28;20430;-63
2022/12/05 03:18:17;;;;;;;;;;;12.40;93.00;;;;;;5033334;28;19966;-63
2022/12/05 03:20:47;;;;;;;;;;;12.50;93.00;;;;;;5033981;28;19926;-63
2022/12/05 03:23:20;;;;;;;;;;;12.60;93.00;;;;;;5033891;28;19959;-63
2022/12/05 03:26:01;;;;;;;;;;;12.40;93.00;;;;;;5015892;28;19932;-62
2022/12/05 03:28:39;;;;;;;;;;;12.70;93.10;;;;;;5065582;28;20334;-66
2022/12/05 03:31:08;;;;;;;;;;;12.50;93.00;;;;;;5033258;28;19948;-64
2022/12/05 03:33:35;;;;;;;;;;;12.30;93.00;;;;;;5050004;28;19925;-64
2022/12/05 03:36:05;;;;;;;;;;;12.60;93.10;;;;;;5050103;28;20294;-63
2022/12/05 03:38:35;;;;;;;;;;;12.70;93.10;;;;;;5015271;28;19925;-63
2022/12/05 03:41:15;;;;;;;;;;;12.40;93.00;;;;;;5033618;28;20358;-63
2022/12/05 03:43:47;;;;;;;;;;;12.70;93.10;;;;;;5032731;28;20322;-63
2022/12/05 03:46:24;;;;;;;;;;;12.40;93.10;;;;;;5066423;28;19926;-63
2022/12/05 03:48:54;;;;;;;;;;;12.60;93.10;;;;;;5057048;28;19932;-63
2022/12/05 03:51:19;;;;;;;;;;;12.60;93.10;;;;;;5032995;28;19948;-63
2022/12/05 03:53:50;;;;;;;;;;;12.40;93.10;;;;;;5033384;28;19925;-63
2022/12/05 03:56:35;;;;;;;;;;;12.20;93.00;;;;;;5016719;28;20352;-63
2022/12/05 03:59:13;;;;;;;;;;;12.40;93.10;;;;;;5034186;28;20016;-63
2022/12/05 04:01:38;;;;;;;;;;;12.50;93.20;;;;;;5032849;28;20329;-63
2022/12/05 04:04:07;;;;;;;;;;;12.50;93.10;;;;;;5015204;28;19925;-63
2022/12/05 04:06:34;;;;;;;;;;;12.60;93.20;;;;;;5016652;28;20346;-63
2022/12/05 04:09:01;;;;;;;;;;;12.40;93.10;;;;;;5016048;28;20264;-63
2022/12/05 04:11:28;;;;;;;;;;;12.50;93.20;;;;;;5016682;28;19929;-63
2022/12/05 04:13:55;;;;;;;;;;;12.50;93.20;;;;;;5016196;28;20008;-63
2022/12/05 04:19:11;;;;;;;;;;;;;;;;;;5017506;28;19925;-63
2022/12/05 04:21:38;;;;;;;;;;;12.50;93.20;;;;;;5025680;28;19926;-63
2022/12/05 04:27:20;;;;;;;;;;;12.60;93.30;;;;;;4998796;28;19933;-63
2022/12/05 04:30:05;;;;;;;;;;;12.40;93.20;;;;;;5028448;28;19925;-65
2022/12/05 04:32:39;;;;;;;;;;;12.70;93.30;;;;;;5052188;28;20302;-63
2022/12/05 04:35:06;;;;;;;;;;;12.40;93.20;;;;;;5015821;28;20339;-63
2022/12/05 04:37:32;;;;;;;;;;;12.50;93.30;;;;;;5047371;28;19925;-64
2022/12/05 04:40:00;;;;;;;;;;;12.50;93.30;;;;;;5015916;28;19929;-63
2022/12/05 04:42:26;;;;;;;;;;;12.20;93.20;;;;;;5032764;28;20286;-63
2022/12/05 04:44:52;;;;;;;;;;;12.60;93.30;;;;;;5015890;28;19931;-63
2022/12/05 04:47:18;;;;;;;;;;;12.20;93.20;;;;;;5031774;28;20294;-67
2022/12/05 04:49:44;;;;;;;;;;;12.50;93.30;;;;;;5015947;28;19931;-67
2022/12/05 04:52:10;;;;;;;;;;;12.50;93.30;;;;;;5033588;28;19925;-64
2022/12/05 04:54:44;;;;;;;;;;;12.60;93.40;;;;;;5015908;28;20028;-63
2022/12/05 04:57:10;;;;;;;;;;;;;;;;;;5032883;28;19925;-63
2022/12/05 04:59:36;;;;;;;;;;;12.50;93.30;;;;;;5030504;28;19926;-67
2022/12/05 05:02:03;;;;;;;;;;;12.70;93.30;;;;;;5033775;28;20264;-63
2022/12/05 05:04:30;;;;;;;;;;;12.60;93.40;;;;;;5032562;28;19929;-63
2022/12/05 05:06:56;;;;;;;;;;;;;;;;;;5033570;28;19932;-63
2022/12/05 05:09:22;;;;;;;;;;;12.40;93.30;;;;;;5032350;28;19925;-64
2022/12/05 05:11:48;;;;;;;;;;;12.70;93.40;;;;;;5050011;28;19982;-64
2022/12/05 05:14:13;;;;;;;;;;;12.40;93.30;;;;;;5017696;28;20018;-63
2022/12/05 05:16:39;;;;;;;;;;;12.60;93.40;;;;;;5021318;28;19992;-63
2022/12/05 05:19:05;;;;;;;;;;;12.60;93.40;;;;;;5052505;28;19925;-64
2022/12/05 05:21:35;;;;;;;;;;;12.60;93.40;;;;;;5036336;28;19925;-63
2022/12/05 05:24:00;;;;;;;;;;;12.60;93.50;;;;;;5037323;28;20260;-63
2022/12/05 05:26:27;;;;;;;;;;;12.70;93.40;;;;;;5067602;28;20021;-63
2022/12/05 05:28:52;;;;;;;;;;;12.60;93.40;;;;;;5065201;28;20015;-63
2022/12/05 05:31:18;;;;;;;;;;;12.50;93.40;;;;;;5049042;28;20040;-63
2022/12/05 05:33:47;;;;;;;;;;;12.50;93.40;;;;;;5017430;28;19925;-63
2022/12/05 05:36:13;;;;;;;;;;;12.70;93.20;;;;;;5017076;28;19932;-63
2022/12/05 05:38:39;;;;;;;;;;;12.60;93.50;;;;;;5019334;28;19925;-63
2022/12/05 05:41:05;;;;;;;;;;;12.90;93.30;;;;;;5069097;28;20012;-64
2022/12/05 05:43:31;;;;;;;;;;;12.50;93.10;;;;;;5036925;28;20421;-63
2022/12/05 05:45:56;;;;;;;;;;;12.80;93.50;;;;;;5035166;28;20369;-63
2022/12/05 05:48:22;;;;;;;;;;;12.60;93.40;;;;;;5034929;28;20322;-63
2022/12/05 05:50:48;;;;;;;;;;;12.70;93.50;;;;;;5034951;28;19925;-64
2022/12/05 05:53:13;;;;;;;;;;;12.80;93.50;;;;;;5068570;28;20299;-63
2022/12/05 05:55:39;;;;;;;;;;;12.70;93.50;;;;;;5036308;28;20012;-63
2022/12/05 05:58:05;;;;;;;;;;;12.90;93.50;;;;;;5034363;28;19925;-63
2022/12/05 06:00:31;;;;;;;;;;;;;;;;;;5036725;28;19932;-64
2022/12/05 06:02:57;;;;;;;;;;;12.60;93.40;;;;;;5034838;28;19929;-63
2022/12/05 06:05:23;;;;;;;;;;;13.10;93.60;;;;;;5016428;28;19925;-63
2022/12/05 06:07:48;;;;;;;;;;;12.70;93.40;;;;;;5027040;28;19933;-63
2022/12/05 06:10:14;;;;;;;;;;;13.00;93.50;;;;;;5068326;28;20301;-63
2022/12/05 06:12:40;;;;;;;;;;;12.70;93.50;;;;;;5034375;28;19983;-63
2022/12/05 06:15:05;;;;;;;;;;;12.80;93.50;;;;;;5036963;28;19932;-64
2022/12/05 06:17:31;;;;;;;;;;;12.80;93.50;;;;;;5035024;28;19987;-63
2022/12/05 06:19:57;;;;;;;;;;;12.70;93.40;;;;;;5066618;28;20007;-63
2022/12/05 06:22:22;;;;;;;;;;;12.90;93.50;;;;;;5014504;28;19929;-63
2022/12/05 06:24:48;;;;;;;;;;;12.80;93.50;;;;;;5023575;28;20302;-63
2022/12/05 06:27:14;;;;;;;;;;;12.90;93.50;;;;;;5065259;28;20310;-63
2022/12/05 06:29:39;;;;;;;;;;;12.60;93.40;;;;;;5067184;28;19932;-63
2022/12/05 06:32:05;;;;;;;;;;;12.60;93.40;;;;;;5067858;28;19921;-63
2022/12/05 06:34:31;;;;;;;;;;;12.70;93.40;;;;;;5034589;28;19924;-63
2022/12/05 06:36:58;;;;;;;;;;;;;;;;;;5016438;28;19975;-64
2022/12/05 06:39:23;;;;;;;;;;;12.70;93.30;;;;;;5030562;28;19925;-63
2022/12/05 06:41:49;;;;;;;;;;;12.70;93.50;;;;;;5035950;28;19948;-63
2022/12/05 06:44:15;;;;;;;;;;;12.90;93.50;;;;;;5035836;28;19948;-64
2022/12/05 06:46:40;;;;;;;;;;;12.70;93.50;;;;;;5035862;28;19971;-63
2022/12/05 06:49:06;;;;;;;;;;;12.80;93.50;;;;;;5034357;28;19932;-63
2022/12/05 06:51:32;;;;;;;;;;;12.90;93.50;;;;;;5035711;28;20428;-63
2022/12/05 06:53:57;;;;;;;;;;;12.80;93.50;;;;;;5033745;28;19947;-63
2022/12/05 06:56:23;;;;;;;;;;;;;;;;;;5014486;28;19926;-64
2022/12/05 06:58:51;;;;;;;;;;;;;;;;;;5022749;28;19925;-64
2022/12/05 07:04:01;;;;;;;;;;;12.70;93.40;;;;;;5064463;28;19983;-63
2022/12/05 07:06:27;;;;;;;;;;;12.70;93.40;;;;;;5050686;28;19929;-63
2022/12/05 07:08:53;;;;;;;;;;;12.80;93.50;;;;;;5035240;28;20387;-63
2022/12/05 07:11:18;;;;;;;;;;;13.00;93.50;;;;;;5030302;28;19925;-64
2022/12/05 07:13:44;;;;;;;;;;;12.90;93.50;;;;;;5035229;28;19921;-63
2022/12/05 07:16:09;;;;;;;;;;;12.80;93.50;;;;;;5035172;28;20344;-63
2022/12/05 07:18:35;;;;;;;;;;;13.00;93.60;;;;;;5067635;28;19931;-63
2022/12/05 07:21:02;;;;;;;;;;;12.90;93.40;;;;;;5049483;28;19929;-64
2022/12/05 07:23:27;;;;;;;;;;;12.60;93.50;;;;;;5066259;28;19925;-63
2022/12/05 07:25:53;;;;;;;;;;;12.70;93.40;;;;;;5033346;28;20393;-63
2022/12/05 07:28:19;;;;;;;;;;;12.60;93.40;;;;;;5050185;28;19964;-63
2022/12/05 07:30:45;;;;;;;;;;;12.60;93.50;;;;;;5034974;28;20375;-62
2022/12/05 07:33:11;;;;;;;;;;;;;;;;;;5032530;28;19921;-63
2022/12/05 07:35:36;;;;;;;;;;;12.60;93.40;;;;;;5034178;28;20288;-63
2022/12/05 07:38:02;;;;;;;;;;;;;;;;;;5034759;28;19925;-62
2022/12/05 07:40:28;;;;;;;;;;;12.70;93.50;;;;;;5033298;28;19925;-63
2022/12/05 07:42:54;;;;;;;;;;;12.80;93.50;;;;;;5034380;28;19925;-62
2022/12/05 07:45:19;;;;;;;;;;;12.90;93.50;;;;;;5035310;28;19979;-64
2022/12/05 07:47:45;;;;;;;;;;;;;;;;;;5034528;28;20341;-66
2022/12/05 07:50:12;;;;;;;;;;;12.70;93.50;;;;;;5034670;28;20284;-66
2022/12/05 07:52:38;;;;;;;;;;;12.90;93.40;;;;;;5032261;28;19972;-66
2022/12/05 07:55:04;;;;;;;;;;;12.80;93.40;;;;;;5034596;28;19971;-66
2022/12/05 07:57:30;;;;;;;;;;;13.00;93.40;;;;;;5033240;28;20287;-66
2022/12/05 07:59:55;;;;;;;;;;;13.00;93.40;;;;;;5066202;28;19933;-66
2022/12/05 08:02:21;;;;;;;;;;;12.80;93.30;;;;;;5028940;28;20343;-63
2022/12/05 08:04:46;;;;;;;;;;;12.70;93.30;;;;;;5014308;28;20020;-63
2022/12/05 08:07:12;;;;;;;;;;;12.90;93.40;;;;;;5028557;28;19925;-62
2022/12/05 08:09:38;;;;;;;;;;;13.00;93.40;;;;;;5066107;28;19960;-63
2022/12/05 08:12:03;;;;;;;;;;;12.80;93.30;;;;;;5034043;28;19925;-63
2022/12/05 08:14:29;;;;;;;;;;;12.80;93.00;;;;;;5065491;28;19925;-63
2022/12/05 08:16:55;;;;;;;;;;;;;;;;;;5017243;28;19925;-63
2022/12/05 08:19:21;;;;;;;;;;;13.00;93.40;;;;;;5016721;28;19972;-63
2022/12/05 08:21:46;;;;;;;;;;;12.80;93.30;;;;;;5033307;28;20434;-63
2022/12/05 08:24:12;;;;;;;;;;;12.90;93.40;;;;;;5064559;28;20015;-63
2022/12/05 08:26:38;;;;;;;;;;;12.90;93.40;;;;;;5033822;28;20008;-62
2022/12/05 08:29:05;;;;;;;;;;;12.90;93.40;;;;;;5034061;28;20408;-63
2022/12/05 08:31:31;;;;;;;;;;;13.00;93.40;;;;;;5015573;28;19925;-62
2022/12/05 08:33:57;;;;;;;;;;;;;;;;;;5033722;28;19936;-65
2022/12/05 08:36:23;;;;;;;;;;;12.90;93.40;;;;;;5065032;28;19932;-62
2022/12/05 08:38:48;;;;;;;;;;;12.90;93.40;;;;;;5033362;28;19925;-63
2022/12/05 08:41:14;;;;;;;;;;;;;;;;;;5033659;28;19967;-63
2022/12/05 08:43:40;;;;;;;;;;;12.90;93.50;;;;;;5033243;28;20365;-63
2022/12/05 08:46:06;;;;;;;;;;;13.00;93.50;;;;;;5016270;28;20004;-64
2022/12/05 08:48:32;;;;;;;;;;;12.90;93.50;;;;;;5038037;28;19925;-63
2022/12/05 08:50:58;;;;;;;;;;;12.90;93.50;;;;;;5037268;28;19972;-63
2022/12/05 08:53:23;;;;;;;;;;;12.50;93.40;;;;;;5032509;28;19927;-62
2022/12/05 08:55:49;;;;;;;;;;;;;;;;;;5012191;28;19968;-63
2022/12/05 08:58:15;;;;;;;;;;;13.00;93.60;;;;;;5036326;28;19983;-63
2022/12/05 09:00:41;;;;;;;;;;;12.90;93.60;;;;;;5036297;28;19972;-67
2022/12/05 09:03:07;;;;;;;;;;;13.00;93.70;;;;;;5052907;28;19929;-66
2022/12/05 09:05:33;;;;;;;;;;;13.00;93.60;;;;;;5019561;28;19932;-66
2022/12/05 09:07:58;;;;;;;;;;;13.10;93.60;;;;;;5037729;28;20413;-63
2022/12/05 09:10:24;;;;;;;;;;;12.60;93.50;;;;;;5065050;28;19968;-63
2022/12/05 09:12:50;;;;;;;;;;;12.80;93.60;;;;;;5037538;28;20294;-63
2022/12/05 09:15:16;;;;;;;;;;;12.80;93.40;;;;;;5019322;28;19925;-63
2022/12/05 09:17:41;;;;;;;;;;;12.60;93.50;;;;;;5035792;28;20421;-63
2022/12/05 09:20:07;;;;;;;;;;;12.90;93.60;;;;;;5068446;28;19925;-63
2022/12/05 09:22:33;;;;;;;;;;;12.80;93.20;;;;;;5069506;28;19925;-63
2022/12/05 09:25:02;;;;;;;;;;;;;;;;;;5019139;28;20391;-64
2022/12/05 09:27:28;;;;;;;;;;;12.90;93.60;;;;;;5029309;28;19945;-63
2022/12/05 09:29:53;;;;;;;;;;;12.70;93.60;;;;;;5049427;28;19926;-63
2022/12/05 09:32:19;;;;;;;;;;;12.90;93.50;;;;;;5033300;28;19970;-63
2022/12/05 09:34:45;;;;;;;;;;;12.90;93.30;;;;;;5035817;28;19929;-63
2022/12/05 09:37:11;;;;;;;;;;;;;;;;;;5035130;28;19979;-63
2022/12/05 09:39:37;;;;;;;;;;;;;;;;;;5068931;28;20023;-63
2022/12/05 09:42:09;;;;;;;;;;;12.90;93.70;;;;;;5069156;28;19963;-64
2022/12/05 09:44:40;;;;;;;;;;;13.10;93.70;;;;;;5061772;28;19930;-63
2022/12/05 09:47:09;;;;;;;;;;;12.80;93.60;;;;;;5042361;28;20099;-63
2022/12/05 09:49:35;;;;;;;;;;;12.80;93.60;;;;;;5070148;28;19926;-63
2022/12/05 09:52:01;;;;;;;;;;;;;;;;;;5018507;28;19929;-64
2022/12/05 09:54:27;;;;;;;;;;;;;;;;;;5035280;28;19937;-63
2022/12/05 09:56:52;;;;;;;;;;;13.30;93.70;;;;;;5032061;28;19932;-63
2022/12/05 09:59:19;;;;;;;;;;;12.90;93.60;;;;;;5064914;28;20016;-64
2022/12/05 10:01:48;;;;;;;;;;;12.80;93.60;;;;;;5008587;28;19979;-67
2022/12/05 10:04:23;;;;;;;;;;;12.90;93.60;;;;;;5016016;28;19925;-66
2022/12/05 10:07:00;;;;;;;;;;;13.10;93.60;;;;;;5068485;28;20410;-63
2022/12/05 10:09:32;;;;;;;;;;;13.20;93.70;;;;;;5068179;28;19929;-64
2022/12/05 10:12:04;;;;;;;;;;;13.00;93.60;;;;;;5068223;28;19932;-63
2022/12/05 10:14:30;;;;;;;;;;;;;;;;;;5063853;28;20085;-64
2022/12/05 10:16:56;;;;;;;;;;;;;;;;;;5034905;28;20015;-63
2022/12/05 10:19:23;;;;;;;;;;;13.00;93.60;;;;;;5021685;28;19926;-63
2022/12/05 10:21:52;;;;;;;;;;;13.20;93.60;;;;;;4998946;28;20271;-63
2022/12/05 10:24:21;;;;;;;;;;;13.00;93.50;;;;;;5029672;28;19933;-68
2022/12/05 10:26:59;;;;;;;;;;;13.10;93.60;;;;;;5047060;28;20194;-67
2022/12/05 10:29:37;;;;;;;;;;;13.20;93.80;;;;;;5016905;28;19925;-64
2022/12/05 10:32:11;;;;;;;;;;;12.90;93.70;;;;;;5034773;28;19970;-64
2022/12/05 10:34:38;;;;;;;;;;;13.00;94.00;;;;;;5032828;28;19929;-67
2022/12/05 10:37:06;;;;;;;;;;;13.10;93.90;;;;;;5015383;28;19925;-64
2022/12/05 10:39:32;;;;;;;;;;;;;;;;;;5066034;28;20525;-63
2022/12/05 10:41:58;;;;;;;;;;;13.10;94.20;;;;;;5033756;28;19921;-66
2022/12/05 10:44:24;;;;;;;;;;;13.10;94.20;;;;;;5017969;28;19932;-64
2022/12/05 10:46:49;;;;;;;;;;;13.30;94.30;;;;;;5067886;28;20287;-63
2022/12/05 10:49:15;;;;;;;;;;;13.20;94.30;;;;;;5017885;28;19921;-66
2022/12/05 10:51:41;;;;;;;;;;;;;;;;;;5033778;28;19932;-65
2022/12/05 10:54:07;;;;;;;;;;;;;;;;;;5032555;28;19976;-65
2022/12/05 10:56:36;;;;;;;;;;;13.10;94.50;;;;;;5034152;28;19925;-63
2022/12/05 10:59:02;;;;;;;;;;;13.10;94.50;;;;;;5067581;28;19925;-64
2022/12/05 11:01:28;;;;;;;;;;;13.00;94.60;;;;;;5063064;28;19925;-67
2022/12/05 11:04:00;;;;;;;;;;;13.40;94.70;;;;;;5064816;28;19925;-63
2022/12/05 11:06:30;;;;;;;;;;;13.20;94.60;;;;;;5014653;28;19971;-64
2022/12/05 11:08:56;;;;;;;;;;;13.30;94.60;;;;;;5014470;28;19948;-63
2022/12/05 11:11:23;;;;;;;;;;;13.10;94.60;;;;;;5007990;28;19929;-67
2022/12/05 11:13:55;;;;;;;;;;;13.40;94.80;;;;;;5015997;28;19925;-65
2022/12/05 11:16:25;;;;;;;;;;;13.20;94.70;;;;;;5064306;28;19925;-64
2022/12/05 11:18:52;;;;;;;;;;;13.20;94.80;;;;;;5015882;28;19983;-63
2022/12/05 11:21:18;;;;;;;;;;;;;;;;;;5049099;28;19925;-64
2022/12/05 11:23:44;;;;;;;;;;;13.60;94.90;;;;;;5031116;28;19920;-65
2022/12/05 11:26:10;;;;;;;;;;;;;;;;;;5027550;28;19932;-64
2022/12/05 11:28:36;;;;;;;;;;;13.30;94.80;;;;;;5029456;28;19925;-63
2022/12/05 11:31:02;;;;;;;;;;;13.60;95.00;;;;;;5064790;28;20031;-64
2022/12/05 11:33:28;;;;;;;;;;;13.20;94.90;;;;;;5065007;28;20007;-64
2022/12/05 11:35:56;;;;;;;;;;;13.10;94.90;;;;;;5066586;28;19925;-64
2022/12/05 11:38:24;;;;;;;;;;;13.10;95.00;;;;;;5050079;28;19925;-64
2022/12/05 11:40:54;;;;;;;;;;;13.40;95.20;;;;;;5049934;28;19925;-64
2022/12/05 11:43:22;;;;;;;;;;;13.50;95.10;;;;;;5016055;28;20016;-67
2022/12/05 11:45:54;;;;;;;;;;;13.40;95.00;;;;;;5064048;28;19925;-67
2022/12/05 11:48:35;;;;;;;;;;;13.30;95.20;;;;;;5064804;28;20020;-64
2022/12/05 11:51:01;;;;;;;;;;;;;;;;;;5066365;28;19929;-65
2022/12/05 11:53:44;;;;;;;;;;;13.30;95.20;;;;;;5032495;28;20272;-64
2022/12/05 11:56:13;;;;;;;;;;;13.30;95.10;;;;;;5016468;28;19931;-67
2022/12/05 11:58:53;;;;;;;;;;;13.30;95.10;;;;;;5066300;28;20023;-67
2022/12/05 12:01:23;;;;;;;;;;;13.20;95.00;;;;;;5055595;28;19932;-63
2022/12/05 12:04:17;;;;;;;;;;;13.40;95.00;;;;;;5048507;28;19926;-64
2022/12/05 12:07:16;;;;;;;;;;;13.50;95.00;;;;;;5053305;28;19926;-63
2022/12/05 12:09:44;;;;;;;;;;;13.30;95.00;;;;;;5071989;28;19925;-64
2022/12/05 12:12:10;;;;;;;;;;;;;;;;;;5087585;28;19925;-65
2022/12/05 12:14:51;;;;;;;;;;;13.20;95.00;;;;;;5015747;28;20386;-64
2022/12/05 12:17:32;;;;;;;;;;;13.40;94.90;;;;;;5015064;28;19982;-66
2022/12/05 12:19:57;;;;;;;;;;;13.40;94.90;;;;;;5044567;28;20286;-64
2022/12/05 12:22:23;;;;;;;;;;;13.50;94.90;;;;;;5086214;28;19932;-63
2022/12/05 12:24:48;;;;;;;;;;;13.40;95.00;;;;;;5071152;28;19925;-64
2022/12/05 12:27:26;;;;;;;;;;;13.30;94.90;;;;;;5068021;28;19947;-64
2022/12/05 12:29:58;;;;;;;;;;;13.50;94.90;;;;;;5068156;28;19925;-67
2022/12/05 12:32:50;;;;;;;;;;;13.50;94.90;;;;;;5073699;28;19932;-67
2022/12/05 12:35:15;;;;;;;;;;;13.30;94.90;;;;;;5072175;28;20360;-67
2022/12/05 12:37:56;;;;;;;;;;;12.90;94.80;;;;;;5034526;28;20092;-68
2022/12/05 12:40:24;;;;;;;;;;;13.40;94.90;;;;;;5036890;28;20430;-67
2022/12/05 12:42:58;;;;;;;;;;;13.20;94.80;;;;;;5053082;28;20266;-64
2022/12/05 12:45:44;;;;;;;;;;;13.30;94.90;;;;;;5051011;28;19968;-64
2022/12/05 12:48:10;;;;;;;;;;;;;;;;;;5065778;28;19925;-64
2022/12/05 12:50:45;;;;;;;;;;;13.40;94.80;;;;;;5032673;28;19929;-64
2022/12/05 12:53:11;;;;;;;;;;;;;;;;;;5030892;28;19927;-64
2022/12/05 12:55:43;;;;;;;;;;;13.10;94.70;;;;;;5031712;28;20334;-64
2022/12/05 12:58:08;;;;;;;;;;;13.30;94.80;;;;;;5065447;28;20402;-64
2022/12/05 13:00:34;;;;;;;;;;;13.40;94.80;;;;;;5064683;28;19925;-64
2022/12/05 13:03:00;;;;;;;;;;;;;;;;;;5063753;28;19929;-68
2022/12/05 13:05:26;;;;;;;;;;;;;;;;;;5064145;28;20287;-64
2022/12/05 13:07:53;;;;;;;;;;;13.50;94.70;;;;;;5031249;28;20337;-64
2022/12/05 13:10:18;;;;;;;;;;;13.50;94.80;;;;;;4996108;28;19925;-64
2022/12/05 13:12:44;;;;;;;;;;;;;;;;;;5013007;28;19925;-64
2022/12/05 13:15:12;;;;;;;;;;;13.50;94.70;;;;;;5013648;28;20383;-64
2022/12/05 13:17:38;;;;;;;;;;;13.30;94.40;;;;;;4996008;28;20295;-64
2022/12/05 13:20:04;;;;;;;;;;;13.40;94.70;;;;;;5045392;28;19926;-64
2022/12/05 13:22:30;;;;;;;;;;;13.20;94.70;;;;;;4996251;28;19929;-64
2022/12/05 13:24:55;;;;;;;;;;;13.20;94.70;;;;;;5012885;28;20296;-63
2022/12/05 13:27:22;;;;;;;;;;;13.20;94.70;;;;;;5012625;28;20324;-63
2022/12/05 13:29:52;;;;;;;;;;;13.60;94.80;;;;;;4995792;28;19925;-63
2022/12/05 13:32:27;;;;;;;;;;;13.30;94.70;;;;;;4996930;28;19932;-64
2022/12/05 13:34:53;;;;;;;;;;;13.40;94.70;;;;;;5015923;28;19925;-64
2022/12/05 13:42:58;;;;;;;;;;;13.20;94.60;;;;;;5034915;28;19925;-64
2022/12/05 13:45:23;;;;;;;;;;;13.40;94.70;;;;;;5035480;28;19932;-64
2022/12/05 13:47:58;;;;;;;;;;;13.30;94.70;;;;;;5035444;28;19925;-64
2022/12/05 13:51:03;;;;;;;;;;;13.30;94.70;;;;;;5069022;28;19931;-64
2022/12/05 13:53:36;;;;;;;;;;;13.10;94.60;;;;;;5037923;28;19929;-64
2022/12/05 13:56:11;;;;;;;;;;;13.30;94.60;;;;;;5021396;28;19970;-64
2022/12/05 13:58:40;;;;;;;;;;;13.30;94.70;;;;;;5037784;28;19936;-64
2022/12/05 14:01:23;;;;;;;;;;;13.40;94.70;;;;;;5054491;28;20271;-64
2022/12/05 14:03:49;;;;;;;;;;;13.10;94.70;;;;;;5037903;28;19932;-63
2022/12/05 14:06:33;;;;;;;;;;;13.30;94.70;;;;;;5037571;28;19929;-64
2022/12/05 14:08:59;;;;;;;;;;;13.20;94.70;;;;;;5037800;28;19932;-64
2022/12/05 14:11:24;;;;;;;;;;;13.10;94.60;;;;;;5021006;28;19925;-63
2022/12/05 14:13:52;;;;;;;;;;;13.50;94.80;;;;;;5037669;28;19951;-64
2022/12/05 14:16:18;;;;;;;;;;;13.10;94.60;;;;;;5054215;28;19928;-64
2022/12/05 14:18:47;;;;;;;;;;;13.40;94.70;;;;;;5054234;28;19932;-64
2022/12/05 14:21:31;;;;;;;;;;;13.30;94.80;;;;;;5053957;28;19929;-65
2022/12/05 14:23:56;;;;;;;;;;;13.20;94.70;;;;;;5046899;28;19936;-64
2022/12/05 14:26:37;;;;;;;;;;;13.20;94.70;;;;;;5036301;28;19925;-64
2022/12/05 14:29:03;;;;;;;;;;;13.20;94.70;;;;;;5035779;28;20351;-64
2022/12/05 14:31:35;;;;;;;;;;;13.40;94.70;;;;;;5067906;28;20022;-64
2022/12/05 14:34:01;;;;;;;;;;;;;;;;;;5025426;28;19930;-64
2022/12/05 14:36:29;;;;;;;;;;;13.30;94.70;;;;;;5014822;28;19929;-64
2022/12/05 14:38:55;;;;;;;;;;;13.40;94.70;;;;;;4998740;28;19937;-64
2022/12/05 14:41:33;;;;;;;;;;;13.20;94.60;;;;;;5024986;28;19932;-65
2022/12/05 14:43:59;;;;;;;;;;;13.30;94.60;;;;;;5050188;28;19925;-65
2022/12/05 14:46:26;;;;;;;;;;;13.50;94.70;;;;;;5034385;28;19932;-64
2022/12/05 14:48:53;;;;;;;;;;;13.40;94.70;;;;;;5050856;28;19921;-65
2022/12/05 14:51:25;;;;;;;;;;;13.60;94.70;;;;;;5033712;28;19979;-64